sensor_id;sensor_type;location;lat;lon;timestamp;temperature;humidity
42187;DHT22;27858;51.414;0.018;2024-03-02T00:01:15;5.10;99.90
42187;DHT22;27858;51.414;0.018;2024-03-02T00:03:42;5.10;99.90
42187;DHT22;27858;51.414;0.018;2024-03-02T00:06:12;5.00;99.90
42187;DHT22;27858;51.414;0.018;2024-03-02T00:08:39;5.10;99.90
42187;DHT22;27858;51.414;0.018;2024-03-02T00:11:07;5.10;99.90
42187;DHT22;27858;51.414;0.018;2024-03-02T00:13:34;5.10;99.90
42187;DHT22;27858;51.414;0.018;2024-03-02T00:16:02;5.10;99.90
42187;DHT22;27858;51.414;0.018;2024-03-02T00:18:35;5.10;99.90
42187;DHT22;27858;51.414;0.018;2024-03-02T00:21:03;5.00;99.90
42187;DHT22;27858;51.414;0.018;2024-03-02T00:23:33;5.10;99.90
42187;DHT22;27858;51.414;0.018;2024-03-02T00:26:02;5.10;99.90
42187;DHT22;27858;51.414;0.018;2024-03-02T00:28:36;5.10;99.90
42187;DHT22;27858;51.414;0.018;2024-03-02T00:31:13;5.00;99.90
42187;DHT22;27858;51.414;0.018;2024-03-02T00:33:48;5.00;99.90
42187;DHT22;27858;51.414;0.018;2024-03-02T00:36:16;5.00;99.90
42187;DHT22;27858;51.414;0.018;2024-03-02T00:38:48;5.00;99.90
42187;DHT22;27858;51.414;0.018;2024-03-02T00:44:03;5.00;99.90
42187;DHT22;27858;51.414;0.018;2024-03-02T00:46:36;5.00;99.90
42187;DHT22;27858;51.414;0.018;2024-03-02T00:49:05;5.10;99.90
42187;DHT22;27858;51.414;0.018;2024-03-02T00:51:39;5.00;99.90
42187;DHT22;27858;51.414;0.018;2024-03-02T00:54:08;4.90;99.90
42187;DHT22;27858;51.414;0.018;2024-03-02T00:56:36;4.90;99.90
42187;DHT22;27858;51.414;0.018;2024-03-02T00:59:03;4.90;99.90
42187;DHT22;27858;51.414;0.018;2024-03-02T01:01:29;4.90;99.90
42187;DHT22;27858;51.414;0.018;2024-03-02T01:03:56;5.10;99.90
42187;DHT22;27858;51.414;0.018;2024-03-02T01:06:23;5.10;99.90
42187;DHT22;27858;51.414;0.018;2024-03-02T01:08:50;5.10;99.90
42187;DHT22;27858;51.414;0.018;2024-03-02T01:11:19;5.00;99.90
42187;DHT22;27858;51.414;0.018;2024-03-02T01:13:50;4.90;99.90
42187;DHT22;27858;51.414;0.018;2024-03-02T01:16:17;4.90;99.90
42187;DHT22;27858;51.414;0.018;2024-03-02T01:18:43;4.90;99.90
42187;DHT22;27858;51.414;0.018;2024-03-02T01:21:10;5.00;99.90
42187;DHT22;27858;51.414;0.018;2024-03-02T01:23:37;5.10;99.90
42187;DHT22;27858;51.414;0.018;2024-03-02T01:26:04;5.00;99.90
42187;DHT22;27858;51.414;0.018;2024-03-02T01:28:31;5.00;99.90
42187;DHT22;27858;51.414;0.018;2024-03-02T01:30:58;5.00;99.90
42187;DHT22;27858;51.414;0.018;2024-03-02T01:33:25;5.00;99.90
42187;DHT22;27858;51.414;0.018;2024-03-02T01:35:52;5.10;99.90
42187;DHT22;27858;51.414;0.018;2024-03-02T01:38:19;5.00;99.90
42187;DHT22;27858;51.414;0.018;2024-03-02T01:40:46;5.10;99.90
42187;DHT22;27858;51.414;0.018;2024-03-02T01:43:13;5.10;99.90
42187;DHT22;27858;51.414;0.018;2024-03-02T01:45:40;5.20;99.90
42187;DHT22;27858;51.414;0.018;2024-03-02T01:48:07;5.30;99.90
42187;DHT22;27858;51.414;0.018;2024-03-02T01:50:34;5.20;99.90
42187;DHT22;27858;51.414;0.018;2024-03-02T01:53:02;5.30;99.90
42187;DHT22;27858;51.414;0.018;2024-03-02T01:55:30;5.40;99.90
42187;DHT22;27858;51.414;0.018;2024-03-02T01:57:58;5.40;99.90
42187;DHT22;27858;51.414;0.018;2024-03-02T02:00:25;5.50;99.90
42187;DHT22;27858;51.414;0.018;2024-03-02T02:02:53;5.40;99.90
42187;DHT22;27858;51.414;0.018;2024-03-02T02:05:20;5.40;99.90
42187;DHT22;27858;51.414;0.018;2024-03-02T02:07:47;5.50;99.90
42187;DHT22;27858;51.414;0.018;2024-03-02T02:10:14;5.60;99.90
42187;DHT22;27858;51.414;0.018;2024-03-02T02:12:41;5.60;99.90
42187;DHT22;27858;51.414;0.018;2024-03-02T02:17:50;5.60;99.90
42187;DHT22;27858;51.414;0.018;2024-03-02T02:20:17;5.70;99.90
42187;DHT22;27858;51.414;0.018;2024-03-02T02:23:04;5.70;99.90
42187;DHT22;27858;51.414;0.018;2024-03-02T02:25:37;5.80;99.90
42187;DHT22;27858;51.414;0.018;2024-03-02T02:28:04;5.80;99.90
42187;DHT22;27858;51.414;0.018;2024-03-02T02:30:32;5.80;99.90
42187;DHT22;27858;51.414;0.018;2024-03-02T02:32:59;5.90;99.90
42187;DHT22;27858;51.414;0.018;2024-03-02T02:35:26;5.90;99.90
42187;DHT22;27858;51.414;0.018;2024-03-02T02:37:54;6.00;99.90
42187;DHT22;27858;51.414;0.018;2024-03-02T02:40:22;5.90;99.90
42187;DHT22;27858;51.414;0.018;2024-03-02T02:42:49;5.90;99.90
42187;DHT22;27858;51.414;0.018;2024-03-02T02:45:16;6.10;99.90
42187;DHT22;27858;51.414;0.018;2024-03-02T02:47:44;6.00;99.90
42187;DHT22;27858;51.414;0.018;2024-03-02T02:50:12;6.00;99.90
42187;DHT22;27858;51.414;0.018;2024-03-02T02:52:41;6.00;99.90
42187;DHT22;27858;51.414;0.018;2024-03-02T02:55:11;6.10;99.90
42187;DHT22;27858;51.414;0.018;2024-03-02T02:57:42;6.10;99.90
42187;DHT22;27858;51.414;0.018;2024-03-02T03:00:14;6.10;99.90
42187;DHT22;27858;51.414;0.018;2024-03-02T03:02:45;6.20;99.90
42187;DHT22;27858;51.414;0.018;2024-03-02T03:05:13;6.20;99.90
42187;DHT22;27858;51.414;0.018;2024-03-02T03:07:41;6.30;99.90
42187;DHT22;27858;51.414;0.018;2024-03-02T03:10:08;6.20;99.90
42187;DHT22;27858;51.414;0.018;2024-03-02T03:12:36;6.30;99.90
42187;DHT22;27858;51.414;0.018;2024-03-02T03:15:03;6.30;99.90
42187;DHT22;27858;51.414;0.018;2024-03-02T03:17:35;6.30;99.90
42187;DHT22;27858;51.414;0.018;2024-03-02T03:20:03;6.30;99.90
42187;DHT22;27858;51.414;0.018;2024-03-02T03:22:30;6.30;99.90
42187;DHT22;27858;51.414;0.018;2024-03-02T03:24:58;6.30;99.90
42187;DHT22;27858;51.414;0.018;2024-03-02T03:27:26;6.30;99.90
42187;DHT22;27858;51.414;0.018;2024-03-02T03:29:53;6.40;99.90
42187;DHT22;27858;51.414;0.018;2024-03-02T03:32:21;6.40;99.90
42187;DHT22;27858;51.414;0.018;2024-03-02T03:34:48;6.40;99.90
42187;DHT22;27858;51.414;0.018;2024-03-02T03:37:15;6.40;99.90
42187;DHT22;27858;51.414;0.018;2024-03-02T03:39:42;6.30;99.90
42187;DHT22;27858;51.414;0.018;2024-03-02T03:42:09;6.40;99.90
42187;DHT22;27858;51.414;0.018;2024-03-02T03:44:36;6.30;99.90
42187;DHT22;27858;51.414;0.018;2024-03-02T03:47:03;6.40;99.90
42187;DHT22;27858;51.414;0.018;2024-03-02T03:49:29;6.40;99.90
42187;DHT22;27858;51.414;0.018;2024-03-02T03:51:56;6.30;99.90
42187;DHT22;27858;51.414;0.018;2024-03-02T03:54:23;6.40;99.90
42187;DHT22;27858;51.414;0.018;2024-03-02T03:56:50;6.40;99.90
42187;DHT22;27858;51.414;0.018;2024-03-02T03:59:17;6.50;99.90
42187;DHT22;27858;51.414;0.018;2024-03-02T04:01:43;6.40;99.90
42187;DHT22;27858;51.414;0.018;2024-03-02T04:04:10;6.30;99.90
42187;DHT22;27858;51.414;0.018;2024-03-02T04:06:37;6.30;99.90
42187;DHT22;27858;51.414;0.018;2024-03-02T04:09:04;6.40;99.90
42187;DHT22;27858;51.414;0.018;2024-03-02T04:11:31;6.40;99.90
42187;DHT22;27858;51.414;0.018;2024-03-02T04:13:58;6.50;99.90
42187;DHT22;27858;51.414;0.018;2024-03-02T04:16:25;6.50;99.90
42187;DHT22;27858;51.414;0.018;2024-03-02T04:18:51;6.50;99.90
42187;DHT22;27858;51.414;0.018;2024-03-02T04:21:18;6.50;99.90
42187;DHT22;27858;51.414;0.018;2024-03-02T04:23:45;6.50;99.90
42187;DHT22;27858;51.414;0.018;2024-03-02T04:26:12;6.50;99.90
42187;DHT22;27858;51.414;0.018;2024-03-02T04:28:39;6.50;99.90
42187;DHT22;27858;51.414;0.018;2024-03-02T04:31:06;6.40;99.90
42187;DHT22;27858;51.414;0.018;2024-03-02T04:33:33;6.40;99.90
42187;DHT22;27858;51.414;0.018;2024-03-02T04:36:00;6.30;99.90
42187;DHT22;27858;51.414;0.018;2024-03-02T04:38:26;6.40;99.90
42187;DHT22;27858;51.414;0.018;2024-03-02T04:40:53;6.50;99.90
42187;DHT22;27858;51.414;0.018;2024-03-02T04:43:20;6.40;99.90
42187;DHT22;27858;51.414;0.018;2024-03-02T04:45:47;6.40;99.90
42187;DHT22;27858;51.414;0.018;2024-03-02T04:48:14;6.30;99.90
42187;DHT22;27858;51.414;0.018;2024-03-02T04:50:41;6.50;99.90
42187;DHT22;27858;51.414;0.018;2024-03-02T04:53:08;6.50;99.90
42187;DHT22;27858;51.414;0.018;2024-03-02T04:55:35;6.50;99.90
42187;DHT22;27858;51.414;0.018;2024-03-02T04:58:02;6.50;99.90
42187;DHT22;27858;51.414;0.018;2024-03-02T05:00:28;6.60;99.90
42187;DHT22;27858;51.414;0.018;2024-03-02T05:02:55;6.60;99.90
42187;DHT22;27858;51.414;0.018;2024-03-02T05:05:22;6.50;99.90
42187;DHT22;27858;51.414;0.018;2024-03-02T05:07:49;6.50;99.90
42187;DHT22;27858;51.414;0.018;2024-03-02T05:10:16;6.50;99.90
42187;DHT22;27858;51.414;0.018;2024-03-02T05:12:43;6.60;99.90
42187;DHT22;27858;51.414;0.018;2024-03-02T05:15:12;6.50;99.90
42187;DHT22;27858;51.414;0.018;2024-03-02T05:17:42;6.60;99.90
42187;DHT22;27858;51.414;0.018;2024-03-02T05:20:12;6.60;99.90
42187;DHT22;27858;51.414;0.018;2024-03-02T05:22:39;6.60;99.90
42187;DHT22;27858;51.414;0.018;2024-03-02T05:25:07;6.60;99.90
42187;DHT22;27858;51.414;0.018;2024-03-02T05:27:34;6.60;99.90
42187;DHT22;27858;51.414;0.018;2024-03-02T05:30:01;6.60;99.90
42187;DHT22;27858;51.414;0.018;2024-03-02T05:32:28;6.70;99.90
42187;DHT22;27858;51.414;0.018;2024-03-02T05:34:55;6.50;99.90
42187;DHT22;27858;51.414;0.018;2024-03-02T05:37:22;6.50;99.90
42187;DHT22;27858;51.414;0.018;2024-03-02T05:39:49;6.60;99.90
42187;DHT22;27858;51.414;0.018;2024-03-02T05:42:16;6.50;99.90
42187;DHT22;27858;51.414;0.018;2024-03-02T05:44:45;6.60;99.90
42187;DHT22;27858;51.414;0.018;2024-03-02T05:47:13;6.50;99.90
42187;DHT22;27858;51.414;0.018;2024-03-02T05:49:39;6.50;99.90
42187;DHT22;27858;51.414;0.018;2024-03-02T05:52:06;6.60;99.90
42187;DHT22;27858;51.414;0.018;2024-03-02T05:54:33;6.50;99.90
42187;DHT22;27858;51.414;0.018;2024-03-02T05:57:00;6.60;99.90
42187;DHT22;27858;51.414;0.018;2024-03-02T05:59:44;6.60;99.90
42187;DHT22;27858;51.414;0.018;2024-03-02T06:02:10;6.50;99.90
42187;DHT22;27858;51.414;0.018;2024-03-02T06:04:39;6.60;99.90
42187;DHT22;27858;51.414;0.018;2024-03-02T06:07:06;6.60;99.90
42187;DHT22;27858;51.414;0.018;2024-03-02T06:09:33;6.60;99.90
42187;DHT22;27858;51.414;0.018;2024-03-02T06:12:00;6.60;99.90
42187;DHT22;27858;51.414;0.018;2024-03-02T06:14:27;6.60;99.90
42187;DHT22;27858;51.414;0.018;2024-03-02T06:16:54;6.60;99.90
42187;DHT22;27858;51.414;0.018;2024-03-02T06:19:21;6.70;99.90
42187;DHT22;27858;51.414;0.018;2024-03-02T06:21:48;6.80;99.90
42187;DHT22;27858;51.414;0.018;2024-03-02T06:24:15;6.80;99.90
42187;DHT22;27858;51.414;0.018;2024-03-02T06:26:42;6.80;99.90
42187;DHT22;27858;51.414;0.018;2024-03-02T06:29:09;6.80;99.90
42187;DHT22;27858;51.414;0.018;2024-03-02T06:31:36;6.90;99.90
42187;DHT22;27858;51.414;0.018;2024-03-02T06:34:03;6.80;99.90
42187;DHT22;27858;51.414;0.018;2024-03-02T06:36:31;6.80;99.90
42187;DHT22;27858;51.414;0.018;2024-03-02T06:38:58;6.80;99.90
42187;DHT22;27858;51.414;0.018;2024-03-02T06:41:25;7.00;99.90
42187;DHT22;27858;51.414;0.018;2024-03-02T06:43:53;6.80;99.90
42187;DHT22;27858;51.414;0.018;2024-03-02T06:46:26;6.90;99.90
42187;DHT22;27858;51.414;0.018;2024-03-02T06:48:53;6.90;99.90
42187;DHT22;27858;51.414;0.018;2024-03-02T06:51:20;6.80;99.90
42187;DHT22;27858;51.414;0.018;2024-03-02T06:53:47;6.80;99.90
42187;DHT22;27858;51.414;0.018;2024-03-02T06:56:14;6.90;99.90
42187;DHT22;27858;51.414;0.018;2024-03-02T06:58:40;6.80;99.90
42187;DHT22;27858;51.414;0.018;2024-03-02T07:01:09;6.80;99.90
42187;DHT22;27858;51.414;0.018;2024-03-02T07:03:36;6.80;99.90
42187;DHT22;27858;51.414;0.018;2024-03-02T07:06:03;6.80;99.90
42187;DHT22;27858;51.414;0.018;2024-03-02T07:08:31;6.80;99.90
42187;DHT22;27858;51.414;0.018;2024-03-02T07:10:58;6.90;99.90
42187;DHT22;27858;51.414;0.018;2024-03-02T07:13:25;6.90;99.90
42187;DHT22;27858;51.414;0.018;2024-03-02T07:15:52;6.90;99.90
42187;DHT22;27858;51.414;0.018;2024-03-02T07:18:31;6.90;99.90
42187;DHT22;27858;51.414;0.018;2024-03-02T07:20:58;6.90;99.90
42187;DHT22;27858;51.414;0.018;2024-03-02T07:23:27;7.00;99.90
42187;DHT22;27858;51.414;0.018;2024-03-02T07:25:54;6.90;99.90
42187;DHT22;27858;51.414;0.018;2024-03-02T07:28:26;7.10;99.90
42187;DHT22;27858;51.414;0.018;2024-03-02T07:31:04;7.00;99.90
42187;DHT22;27858;51.414;0.018;2024-03-02T07:33:31;7.00;99.90
42187;DHT22;27858;51.414;0.018;2024-03-02T07:35:59;7.10;99.90
42187;DHT22;27858;51.414;0.018;2024-03-02T07:38:31;7.20;99.90
42187;DHT22;27858;51.414;0.018;2024-03-02T07:40:59;7.30;99.90
42187;DHT22;27858;51.414;0.018;2024-03-02T07:43:27;7.20;99.90
42187;DHT22;27858;51.414;0.018;2024-03-02T07:45:53;7.30;99.90
42187;DHT22;27858;51.414;0.018;2024-03-02T07:48:21;7.40;99.90
42187;DHT22;27858;51.414;0.018;2024-03-02T07:50:47;7.40;99.90
42187;DHT22;27858;51.414;0.018;2024-03-02T07:53:14;7.50;99.90
42187;DHT22;27858;51.414;0.018;2024-03-02T07:55:41;7.50;99.90
42187;DHT22;27858;51.414;0.018;2024-03-02T07:58:08;7.60;99.90
42187;DHT22;27858;51.414;0.018;2024-03-02T08:00:35;7.60;99.90
42187;DHT22;27858;51.414;0.018;2024-03-02T08:03:03;7.70;99.90
42187;DHT22;27858;51.414;0.018;2024-03-02T08:05:30;7.50;99.90
42187;DHT22;27858;51.414;0.018;2024-03-02T08:07:57;7.60;99.90
42187;DHT22;27858;51.414;0.018;2024-03-02T08:10:23;7.60;99.90
42187;DHT22;27858;51.414;0.018;2024-03-02T08:12:50;7.60;99.90
42187;DHT22;27858;51.414;0.018;2024-03-02T08:15:17;7.50;99.90
42187;DHT22;27858;51.414;0.018;2024-03-02T08:17:44;7.60;99.90
42187;DHT22;27858;51.414;0.018;2024-03-02T08:20:15;7.50;99.90
42187;DHT22;27858;51.414;0.018;2024-03-02T08:22:42;7.60;99.90
42187;DHT22;27858;51.414;0.018;2024-03-02T08:25:09;7.60;99.90
42187;DHT22;27858;51.414;0.018;2024-03-02T08:27:37;7.60;99.90
42187;DHT22;27858;51.414;0.018;2024-03-02T08:30:05;7.70;99.90
42187;DHT22;27858;51.414;0.018;2024-03-02T08:32:34;7.80;99.90
42187;DHT22;27858;51.414;0.018;2024-03-02T08:35:01;7.90;99.90
42187;DHT22;27858;51.414;0.018;2024-03-02T08:37:28;8.00;99.90
42187;DHT22;27858;51.414;0.018;2024-03-02T08:39:56;8.00;99.90
42187;DHT22;27858;51.414;0.018;2024-03-02T08:42:23;8.00;99.90
42187;DHT22;27858;51.414;0.018;2024-03-02T08:44:50;8.10;99.90
42187;DHT22;27858;51.414;0.018;2024-03-02T08:47:17;8.20;99.90
42187;DHT22;27858;51.414;0.018;2024-03-02T08:49:44;8.10;99.90
42187;DHT22;27858;51.414;0.018;2024-03-02T08:52:10;8.00;99.90
42187;DHT22;27858;51.414;0.018;2024-03-02T08:54:37;8.00;99.90
42187;DHT22;27858;51.414;0.018;2024-03-02T08:57:05;7.90;99.90
42187;DHT22;27858;51.414;0.018;2024-03-02T08:59:32;7.80;99.90
42187;DHT22;27858;51.414;0.018;2024-03-02T09:02:00;7.80;99.90
42187;DHT22;27858;51.414;0.018;2024-03-02T09:04:27;7.70;99.90
42187;DHT22;27858;51.414;0.018;2024-03-02T09:06:59;7.60;99.90
42187;DHT22;27858;51.414;0.018;2024-03-02T09:09:26;7.40;99.90
42187;DHT22;27858;51.414;0.018;2024-03-02T09:11:53;7.40;99.90
42187;DHT22;27858;51.414;0.018;2024-03-02T09:14:22;7.40;99.90
42187;DHT22;27858;51.414;0.018;2024-03-02T09:16:49;7.40;99.90
42187;DHT22;27858;51.414;0.018;2024-03-02T09:19:17;7.40;99.90
42187;DHT22;27858;51.414;0.018;2024-03-02T09:21:44;7.50;99.90
42187;DHT22;27858;51.414;0.018;2024-03-02T09:24:11;7.50;99.90
42187;DHT22;27858;51.414;0.018;2024-03-02T09:26:43;7.60;99.90
42187;DHT22;27858;51.414;0.018;2024-03-02T09:29:10;7.80;99.90
42187;DHT22;27858;51.414;0.018;2024-03-02T09:31:40;7.80;99.90
42187;DHT22;27858;51.414;0.018;2024-03-02T09:34:08;7.80;99.90
42187;DHT22;27858;51.414;0.018;2024-03-02T09:36:35;7.90;99.90
42187;DHT22;27858;51.414;0.018;2024-03-02T09:39:02;7.90;99.90
42187;DHT22;27858;51.414;0.018;2024-03-02T09:41:33;8.20;99.90
42187;DHT22;27858;51.414;0.018;2024-03-02T09:44:02;8.10;99.90
42187;DHT22;27858;51.414;0.018;2024-03-02T09:46:30;8.20;99.90
42187;DHT22;27858;51.414;0.018;2024-03-02T09:48:57;8.20;99.90
42187;DHT22;27858;51.414;0.018;2024-03-02T09:51:23;8.40;99.90
42187;DHT22;27858;51.414;0.018;2024-03-02T09:53:50;8.30;99.90
42187;DHT22;27858;51.414;0.018;2024-03-02T09:56:18;8.30;99.90
42187;DHT22;27858;51.414;0.018;2024-03-02T09:58:45;8.40;99.90
42187;DHT22;27858;51.414;0.018;2024-03-02T10:01:12;8.30;99.90
42187;DHT22;27858;51.414;0.018;2024-03-02T10:03:39;8.30;99.90
42187;DHT22;27858;51.414;0.018;2024-03-02T10:06:25;8.10;99.90
42187;DHT22;27858;51.414;0.018;2024-03-02T10:08:53;8.00;99.90
42187;DHT22;27858;51.414;0.018;2024-03-02T10:11:34;7.80;99.90
42187;DHT22;27858;51.414;0.018;2024-03-02T10:14:08;7.90;99.90
42187;DHT22;27858;51.414;0.018;2024-03-02T10:16:36;7.70;99.90
42187;DHT22;27858;51.414;0.018;2024-03-02T10:19:20;7.70;99.90
42187;DHT22;27858;51.414;0.018;2024-03-02T10:21:51;7.80;99.90
42187;DHT22;27858;51.414;0.018;2024-03-02T10:24:20;8.00;99.90
42187;DHT22;27858;51.414;0.018;2024-03-02T10:26:47;8.10;99.90
42187;DHT22;27858;51.414;0.018;2024-03-02T10:29:15;8.10;99.90
42187;DHT22;27858;51.414;0.018;2024-03-02T10:31:44;8.10;99.90
42187;DHT22;27858;51.414;0.018;2024-03-02T10:34:12;7.70;99.90
42187;DHT22;27858;51.414;0.018;2024-03-02T10:36:43;7.30;99.90
42187;DHT22;27858;51.414;0.018;2024-03-02T10:39:14;7.10;99.90
42187;DHT22;27858;51.414;0.018;2024-03-02T10:41:41;7.00;99.90
42187;DHT22;27858;51.414;0.018;2024-03-02T10:44:09;7.00;99.90
42187;DHT22;27858;51.414;0.018;2024-03-02T10:46:37;7.00;99.90
42187;DHT22;27858;51.414;0.018;2024-03-02T10:49:05;7.00;99.90
42187;DHT22;27858;51.414;0.018;2024-03-02T10:51:35;7.10;99.90
42187;DHT22;27858;51.414;0.018;2024-03-02T10:54:04;7.10;99.90
42187;DHT22;27858;51.414;0.018;2024-03-02T10:56:40;7.10;99.90
42187;DHT22;27858;51.414;0.018;2024-03-02T10:59:21;6.60;99.90
42187;DHT22;27858;51.414;0.018;2024-03-02T11:01:50;7.10;99.90
42187;DHT22;27858;51.414;0.018;2024-03-02T11:04:18;7.10;99.90
42187;DHT22;27858;51.414;0.018;2024-03-02T11:06:49;6.80;99.90
42187;DHT22;27858;51.414;0.018;2024-03-02T11:09:20;6.80;99.90
42187;DHT22;27858;51.414;0.018;2024-03-02T11:14:55;6.60;99.90
42187;DHT22;27858;51.414;0.018;2024-03-02T11:17:23;7.20;99.90
42187;DHT22;27858;51.414;0.018;2024-03-02T11:19:50;6.90;99.90
42187;DHT22;27858;51.414;0.018;2024-03-02T11:22:18;7.00;99.90
42187;DHT22;27858;51.414;0.018;2024-03-02T11:24:50;6.40;99.90
42187;DHT22;27858;51.414;0.018;2024-03-02T11:33:03;6.70;99.90
42187;DHT22;27858;51.414;0.018;2024-03-02T11:35:44;7.10;99.90
42187;DHT22;27858;51.414;0.018;2024-03-02T11:38:15;7.20;99.90
42187;DHT22;27858;51.414;0.018;2024-03-02T11:40:42;6.70;99.90
42187;DHT22;27858;51.414;0.018;2024-03-02T11:43:09;6.90;99.90
42187;DHT22;27858;51.414;0.018;2024-03-02T11:45:37;7.50;99.90
42187;DHT22;27858;51.414;0.018;2024-03-02T11:48:12;7.10;99.90
42187;DHT22;27858;51.414;0.018;2024-03-02T11:50:42;7.00;99.90
42187;DHT22;27858;51.414;0.018;2024-03-02T11:53:12;7.80;99.90
42187;DHT22;27858;51.414;0.018;2024-03-02T11:55:40;7.40;99.90
42187;DHT22;27858;51.414;0.018;2024-03-02T11:58:08;7.40;99.90
42187;DHT22;27858;51.414;0.018;2024-03-02T12:00:35;7.40;99.90
42187;DHT22;27858;51.414;0.018;2024-03-02T12:03:08;7.50;99.90
42187;DHT22;27858;51.414;0.018;2024-03-02T12:05:36;7.40;99.90
42187;DHT22;27858;51.414;0.018;2024-03-02T12:08:05;8.00;99.90
42187;DHT22;27858;51.414;0.018;2024-03-02T12:10:34;8.20;99.90
42187;DHT22;27858;51.414;0.018;2024-03-02T12:13:04;7.60;99.90
42187;DHT22;27858;51.414;0.018;2024-03-02T12:15:33;8.00;99.90
42187;DHT22;27858;51.414;0.018;2024-03-02T12:18:01;7.80;99.90
42187;DHT22;27858;51.414;0.018;2024-03-02T12:20:30;7.70;99.90
42187;DHT22;27858;51.414;0.018;2024-03-02T12:23:02;7.60;99.90
42187;DHT22;27858;51.414;0.018;2024-03-02T12:25:30;7.80;99.90
42187;DHT22;27858;51.414;0.018;2024-03-02T12:28:00;7.50;99.90
42187;DHT22;27858;51.414;0.018;2024-03-02T12:30:30;7.40;99.90
42187;DHT22;27858;51.414;0.018;2024-03-02T12:32:57;7.60;99.90
42187;DHT22;27858;51.414;0.018;2024-03-02T12:35:25;7.70;99.90
42187;DHT22;27858;51.414;0.018;2024-03-02T12:37:53;7.90;99.90
42187;DHT22;27858;51.414;0.018;2024-03-02T12:40:21;7.90;99.90
42187;DHT22;27858;51.414;0.018;2024-03-02T12:42:50;7.90;99.90
42187;DHT22;27858;51.414;0.018;2024-03-02T12:45:18;8.50;99.90
42187;DHT22;27858;51.414;0.018;2024-03-02T12:47:51;8.10;99.90
42187;DHT22;27858;51.414;0.018;2024-03-02T12:50:19;8.30;99.90
42187;DHT22;27858;51.414;0.018;2024-03-02T12:52:53;8.30;99.90
42187;DHT22;27858;51.414;0.018;2024-03-02T12:55:21;8.70;99.90
42187;DHT22;27858;51.414;0.018;2024-03-02T12:57:52;8.60;99.90
42187;DHT22;27858;51.414;0.018;2024-03-02T13:00:21;8.70;99.90
42187;DHT22;27858;51.414;0.018;2024-03-02T13:02:49;8.70;99.90
42187;DHT22;27858;51.414;0.018;2024-03-02T13:05:18;8.80;99.90
42187;DHT22;27858;51.414;0.018;2024-03-02T13:07:47;9.00;99.90
42187;DHT22;27858;51.414;0.018;2024-03-02T13:10:16;8.80;99.90
42187;DHT22;27858;51.414;0.018;2024-03-02T13:12:43;9.00;99.90
42187;DHT22;27858;51.414;0.018;2024-03-02T13:15:10;9.00;99.90
42187;DHT22;27858;51.414;0.018;2024-03-02T13:17:44;9.40;99.90
42187;DHT22;27858;51.414;0.018;2024-03-02T13:20:12;9.40;99.90
42187;DHT22;27858;51.414;0.018;2024-03-02T13:22:41;9.60;99.90
42187;DHT22;27858;51.414;0.018;2024-03-02T13:25:08;9.70;99.90
42187;DHT22;27858;51.414;0.018;2024-03-02T13:27:39;9.50;99.90
42187;DHT22;27858;51.414;0.018;2024-03-02T13:30:07;9.40;99.90
42187;DHT22;27858;51.414;0.018;2024-03-02T13:32:36;9.30;99.90
42187;DHT22;27858;51.414;0.018;2024-03-02T13:35:04;9.10;99.90
42187;DHT22;27858;51.414;0.018;2024-03-02T13:37:32;9.20;99.90
42187;DHT22;27858;51.414;0.018;2024-03-02T13:40:00;9.50;99.90
42187;DHT22;27858;51.414;0.018;2024-03-02T13:42:27;9.40;99.90
42187;DHT22;27858;51.414;0.018;2024-03-02T13:44:54;9.40;99.90
42187;DHT22;27858;51.414;0.018;2024-03-02T13:47:21;9.60;99.90
42187;DHT22;27858;51.414;0.018;2024-03-02T13:49:48;9.30;99.90
42187;DHT22;27858;51.414;0.018;2024-03-02T13:52:16;9.30;99.90
42187;DHT22;27858;51.414;0.018;2024-03-02T13:54:47;9.20;99.90
42187;DHT22;27858;51.414;0.018;2024-03-02T13:57:15;9.50;99.90
42187;DHT22;27858;51.414;0.018;2024-03-02T13:59:43;9.40;99.90
42187;DHT22;27858;51.414;0.018;2024-03-02T14:02:11;9.50;99.90
42187;DHT22;27858;51.414;0.018;2024-03-02T14:04:38;9.80;99.90
42187;DHT22;27858;51.414;0.018;2024-03-02T14:07:06;10.10;99.90
42187;DHT22;27858;51.414;0.018;2024-03-02T14:09:34;9.90;99.90
42187;DHT22;27858;51.414;0.018;2024-03-02T14:12:01;10.10;99.90
42187;DHT22;27858;51.414;0.018;2024-03-02T14:14:28;10.20;99.90
42187;DHT22;27858;51.414;0.018;2024-03-02T14:16:55;10.30;99.90
42187;DHT22;27858;51.414;0.018;2024-03-02T14:19:22;10.60;99.90
42187;DHT22;27858;51.414;0.018;2024-03-02T14:21:49;10.90;99.90
42187;DHT22;27858;51.414;0.018;2024-03-02T14:24:17;10.70;99.90
42187;DHT22;27858;51.414;0.018;2024-03-02T14:26:43;10.40;99.90
42187;DHT22;27858;51.414;0.018;2024-03-02T14:29:11;10.10;99.90
42187;DHT22;27858;51.414;0.018;2024-03-02T14:31:39;10.00;99.90
42187;DHT22;27858;51.414;0.018;2024-03-02T14:34:06;10.00;99.90
42187;DHT22;27858;51.414;0.018;2024-03-02T14:36:33;10.10;99.90
42187;DHT22;27858;51.414;0.018;2024-03-02T14:39:02;10.00;99.90
42187;DHT22;27858;51.414;0.018;2024-03-02T14:41:31;10.20;99.90
42187;DHT22;27858;51.414;0.018;2024-03-02T14:43:57;10.00;99.90
42187;DHT22;27858;51.414;0.018;2024-03-02T14:46:25;10.30;99.90
42187;DHT22;27858;51.414;0.018;2024-03-02T14:48:51;10.60;99.90
42187;DHT22;27858;51.414;0.018;2024-03-02T14:51:18;10.50;99.90
42187;DHT22;27858;51.414;0.018;2024-03-02T14:53:45;10.60;99.90
42187;DHT22;27858;51.414;0.018;2024-03-02T14:56:12;10.70;99.90
42187;DHT22;27858;51.414;0.018;2024-03-02T14:58:42;10.70;99.90
42187;DHT22;27858;51.414;0.018;2024-03-02T15:01:12;10.90;99.90
42187;DHT22;27858;51.414;0.018;2024-03-02T15:03:41;11.10;99.90
42187;DHT22;27858;51.414;0.018;2024-03-02T15:06:08;11.10;99.90
42187;DHT22;27858;51.414;0.018;2024-03-02T15:08:35;10.80;99.90
42187;DHT22;27858;51.414;0.018;2024-03-02T15:11:02;10.50;99.90
42187;DHT22;27858;51.414;0.018;2024-03-02T15:13:30;10.60;99.90
42187;DHT22;27858;51.414;0.018;2024-03-02T15:15:57;10.60;99.90
42187;DHT22;27858;51.414;0.018;2024-03-02T15:18:25;10.40;99.90
42187;DHT22;27858;51.414;0.018;2024-03-02T15:20:52;10.40;99.90
42187;DHT22;27858;51.414;0.018;2024-03-02T15:23:19;10.40;99.90
42187;DHT22;27858;51.414;0.018;2024-03-02T15:25:46;10.10;99.90
42187;DHT22;27858;51.414;0.018;2024-03-02T15:28:13;10.20;99.90
42187;DHT22;27858;51.414;0.018;2024-03-02T15:30:40;10.70;99.90
42187;DHT22;27858;51.414;0.018;2024-03-02T15:33:08;10.50;99.90
42187;DHT22;27858;51.414;0.018;2024-03-02T15:35:35;10.40;99.90
42187;DHT22;27858;51.414;0.018;2024-03-02T15:38:02;10.50;99.90
42187;DHT22;27858;51.414;0.018;2024-03-02T15:40:29;10.00;99.90
42187;DHT22;27858;51.414;0.018;2024-03-02T15:42:56;9.80;99.90
42187;DHT22;27858;51.414;0.018;2024-03-02T15:45:23;9.50;99.90
42187;DHT22;27858;51.414;0.018;2024-03-02T15:47:50;9.50;99.90
42187;DHT22;27858;51.414;0.018;2024-03-02T15:50:17;10.00;99.90
42187;DHT22;27858;51.414;0.018;2024-03-02T15:52:44;10.50;99.90
42187;DHT22;27858;51.414;0.018;2024-03-02T15:55:13;11.30;99.90
42187;DHT22;27858;51.414;0.018;2024-03-02T15:57:40;11.20;99.90
42187;DHT22;27858;51.414;0.018;2024-03-02T16:00:08;11.30;99.90
42187;DHT22;27858;51.414;0.018;2024-03-02T16:02:35;11.80;99.90
42187;DHT22;27858;51.414;0.018;2024-03-02T16:05:03;12.30;99.90